首页
METAR-TAF:

METAR-TAF

机场 :

Ponta Delgada, 亚速尔群岛, 葡萄牙

纬度: 37-44N, 经度: 025-42W, 海拔: 71米

当前天气观测

该预报发布于36分钟前的14:00 UTC
风速15节,风向东北,在北转东北之间变化
温度 19°C
湿度 83%
气压 1017 hPa
能见度10公里或以上
散云层高于1300英尺
少量云层高于1800英尺, 积雨云.
散云层高于4000英尺

METAR: LPPD 231400Z 05015KT 020V080 9999 SCT013 FEW018CB SCT040 19/16 Q1017

时间: 14:36 (14:36 UTC)

预报

该预报发布于3小时和36分钟前的11:00 UTC
预报有效从23日的 12点(UTC)到 24日的 12点(UTC)
风速13节,风向东北
能见度10公里或以上
散云层高于1500英尺
多云层高于3500英尺
短暂存在
从 23日的 12点(UTC)到 24日的 12点(UTC)
能見度: 5000
散云层高于600英尺
多云层高于1200英尺
少量云层高于2000英尺, 积雨云.
阵雨
几率 40% :
短暂存在
从 23日的 12点(UTC)到 23日的 22点(UTC)
风速15节,风向东北,有时为25节阵风
能見度: 3000
散云层高于1800英尺, 积雨云.
雷暴, 雨
成为
从 24日的 00点(UTC)到 24日的 03点(UTC)
风速8节,风向

TAF: LPPD 231100Z 2312/2412 04013KT 9999 SCT015 BKN035 TEMPO 2312/2412 5000 SHRA SCT006 BKN012 FEW020CB PROB40 TEMPO 2312/2322 04015G25KT 3000 TSRA SCT018CB BECMG 2400/2403 10008KT

超过4000个机场的气象观测和天气预报(METAR&TAF报告)。

可查询的气象台以黄色和红色小点在地图上表示。

将鼠标移到小点上方,可查看气象台名称。

然后点击查看天气观测和预报。

如需切换地图:点击带黑十字的绿色按钮放大地图;点击带横线的绿色按钮缩小地图;或者点击绿色箭头查看邻近地区的地图。


METAR-TAF: